East Brooklyn, Illinois
Current Conditions -  °F | °C
As of 6:55 PM on Wednesday 17 Dec 2014 (Local Time) from KC09 Reporting Station
Overcast Overcast  
Wind Chill: 18°   Ceiling: 2200
Heat Index: 26°   Visibility: 10mi
Dew Point: 21°   Wind: 8mph
Humidity: 79%   Direction: 290°WNW
Pressure: 30.29"   Gusts: NA
Location:  41.1746°N, 88.2765°W
Report Text: KC09 180055Z AUTO 29007KT 10SM OVC022 M03/M06 A3029 RMK AO2 T10321063
Loading
Personal Weather Stations






























Interactive Weather Map New forecast layout! Learn more

10-Day Weather Forecast

Advertisements
Track Severe Weather on mobile